sensor_id;sensor_type;location;lat;lon;timestamp;pressure;altitude;pressure_sealevel;temperature;humidity
2268;BME280;11052;43.338;25.502;2022-10-14T00:01:04;101041.88;;;9.57;100.00
2268;BME280;11052;43.338;25.502;2022-10-14T00:03:32;101043.75;;;9.47;100.00
2268;BME280;11052;43.338;25.502;2022-10-14T00:06:02;101042.16;;;9.38;100.00
2268;BME280;11052;43.338;25.502;2022-10-14T00:08:30;101045.59;;;9.37;100.00
2268;BME280;11052;43.338;25.502;2022-10-14T00:11:01;101043.88;;;9.38;100.00
2268;BME280;11052;43.338;25.502;2022-10-14T00:13:29;101043.06;;;9.34;100.00
2268;BME280;11052;43.338;25.502;2022-10-14T00:15:56;101036.28;;;9.24;100.00
2268;BME280;11052;43.338;25.502;2022-10-14T00:18:24;101042.38;;;9.22;100.00
2268;BME280;11052;43.338;25.502;2022-10-14T00:20:54;101037.16;;;9.23;100.00
2268;BME280;11052;43.338;25.502;2022-10-14T00:23:23;101028.56;;;9.23;100.00
2268;BME280;11052;43.338;25.502;2022-10-14T00:25:50;101032.84;;;9.24;100.00
2268;BME280;11052;43.338;25.502;2022-10-14T00:28:17;101035.56;;;9.14;100.00
2268;BME280;11052;43.338;25.502;2022-10-14T00:30:53;101037.22;;;9.20;100.00
2268;BME280;11052;43.338;25.502;2022-10-14T00:33:20;101034.69;;;9.15;100.00
2268;BME280;11052;43.338;25.502;2022-10-14T00:35:53;101034.72;;;9.12;100.00
2268;BME280;11052;43.338;25.502;2022-10-14T00:38:21;101035.56;;;9.13;100.00
2268;BME280;11052;43.338;25.502;2022-10-14T00:40:50;101043.28;;;9.16;100.00
2268;BME280;11052;43.338;25.502;2022-10-14T00:43:17;101037.28;;;9.14;100.00
2268;BME280;11052;43.338;25.502;2022-10-14T00:45:44;101032.09;;;9.14;100.00
2268;BME280;11052;43.338;25.502;2022-10-14T00:48:12;101033.06;;;9.07;100.00
2268;BME280;11052;43.338;25.502;2022-10-14T00:50:42;101027.00;;;9.08;100.00
2268;BME280;11052;43.338;25.502;2022-10-14T00:53:10;101031.19;;;9.18;100.00
2268;BME280;11052;43.338;25.502;2022-10-14T00:55:38;101030.25;;;9.24;100.00
2268;BME280;11052;43.338;25.502;2022-10-14T00:58:08;101031.13;;;9.23;100.00
2268;BME280;11052;43.338;25.502;2022-10-14T01:00:36;101025.94;;;9.24;100.00
2268;BME280;11052;43.338;25.502;2022-10-14T01:03:07;101030.22;;;9.28;100.00
2268;BME280;11052;43.338;25.502;2022-10-14T01:05:39;101028.56;;;9.23;100.00
2268;BME280;11052;43.338;25.502;2022-10-14T01:08:13;101027.69;;;9.22;100.00
2268;BME280;11052;43.338;25.502;2022-10-14T01:10:49;101019.94;;;9.22;100.00
2268;BME280;11052;43.338;25.502;2022-10-14T01:13:26;101016.56;;;9.17;100.00
2268;BME280;11052;43.338;25.502;2022-10-14T01:16:03;101027.69;;;9.22;100.00
2268;BME280;11052;43.338;25.502;2022-10-14T01:18:49;101020.94;;;9.10;100.00
2268;BME280;11052;43.338;25.502;2022-10-14T01:21:23;101013.28;;;9.01;100.00
2268;BME280;11052;43.338;25.502;2022-10-14T01:27:18;101017.63;;;9.01;100.00
2268;BME280;11052;43.338;25.502;2022-10-14T01:30:03;101017.63;;;9.01;100.00
2268;BME280;11052;43.338;25.502;2022-10-14T01:32:35;101021.03;;;9.03;100.00
2268;BME280;11052;43.338;25.502;2022-10-14T01:35:09;101011.56;;;9.02;100.00
2268;BME280;11052;43.338;25.502;2022-10-14T01:37:44;101011.69;;;8.93;100.00
2268;BME280;11052;43.338;25.502;2022-10-14T01:40:19;101000.50;;;8.91;100.00
2268;BME280;11052;43.338;25.502;2022-10-14T01:42:48;101005.72;;;8.87;100.00
2268;BME280;11052;43.338;25.502;2022-10-14T01:45:21;101006.53;;;8.90;100.00
2268;BME280;11052;43.338;25.502;2022-10-14T01:47:50;101001.38;;;8.88;100.00
2268;BME280;11052;43.338;25.502;2022-10-14T01:50:19;101001.44;;;8.85;100.00
2268;BME280;11052;43.338;25.502;2022-10-14T01:52:51;101006.72;;;8.74;100.00
2268;BME280;11052;43.338;25.502;2022-10-14T01:55:25;101004.16;;;8.71;100.00
2268;BME280;11052;43.338;25.502;2022-10-14T01:57:55;101005.88;;;8.72;100.00
2268;BME280;11052;43.338;25.502;2022-10-14T02:00:24;100998.16;;;8.69;100.00
2268;BME280;11052;43.338;25.502;2022-10-14T02:02:52;101005.28;;;8.49;100.00
2268;BME280;11052;43.338;25.502;2022-10-14T02:05:21;100997.72;;;8.28;100.00
2268;BME280;11052;43.338;25.502;2022-10-14T02:07:55;101004.63;;;8.24;100.00
2268;BME280;11052;43.338;25.502;2022-10-14T02:10:34;101002.94;;;8.23;100.00
2268;BME280;11052;43.338;25.502;2022-10-14T02:13:14;100998.56;;;8.28;100.00
2268;BME280;11052;43.338;25.502;2022-10-14T02:15:57;101004.50;;;8.41;100.00
2268;BME280;11052;43.338;25.502;2022-10-14T02:18:32;100999.31;;;8.44;100.00
2268;BME280;11052;43.338;25.502;2022-10-14T02:21:09;100998.47;;;8.43;100.00
2268;BME280;11052;43.338;25.502;2022-10-14T02:23:41;100995.06;;;8.38;100.00
2268;BME280;11052;43.338;25.502;2022-10-14T02:26:11;100991.59;;;8.41;100.00
2268;BME280;11052;43.338;25.502;2022-10-14T02:28:40;100992.44;;;8.41;100.00
2268;BME280;11052;43.338;25.502;2022-10-14T02:31:13;100995.03;;;8.43;100.00
2268;BME280;11052;43.338;25.502;2022-10-14T02:33:45;100985.53;;;8.45;100.00
2268;BME280;11052;43.338;25.502;2022-10-14T02:36:17;100982.97;;;8.43;100.00
2268;BME280;11052;43.338;25.502;2022-10-14T02:38:46;100983.84;;;8.42;100.00
2268;BME280;11052;43.338;25.502;2022-10-14T02:41:18;100984.69;;;8.43;100.00
2268;BME280;11052;43.338;25.502;2022-10-14T02:43:46;100985.53;;;8.45;100.00
2268;BME280;11052;43.338;25.502;2022-10-14T02:46:18;100984.72;;;8.40;100.00
2268;BME280;11052;43.338;25.502;2022-10-14T02:48:46;100984.84;;;8.25;100.00
2268;BME280;11052;43.338;25.502;2022-10-14T02:51:14;100981.41;;;8.21;100.00
2268;BME280;11052;43.338;25.502;2022-10-14T02:53:41;100984.03;;;8.19;100.00
2268;BME280;11052;43.338;25.502;2022-10-14T02:56:13;100982.28;;;8.20;100.00
2268;BME280;11052;43.338;25.502;2022-10-14T02:58:40;100982.34;;;8.14;100.00
2268;BME280;11052;43.338;25.502;2022-10-14T03:01:07;100983.25;;;8.08;100.00
2268;BME280;11052;43.338;25.502;2022-10-14T03:03:35;100987.56;;;8.09;100.00
2268;BME280;11052;43.338;25.502;2022-10-14T03:06:03;100984.97;;;8.09;100.00
2268;BME280;11052;43.338;25.502;2022-10-14T03:08:30;100986.75;;;8.03;100.00
2268;BME280;11052;43.338;25.502;2022-10-14T03:10:57;100985.94;;;7.96;100.00
2268;BME280;11052;43.338;25.502;2022-10-14T03:13:24;100983.34;;;7.96;100.00
2268;BME280;11052;43.338;25.502;2022-10-14T03:15:52;100980.72;;;8.02;100.00
2268;BME280;11052;43.338;25.502;2022-10-14T03:18:19;100983.38;;;7.93;100.00
2268;BME280;11052;43.338;25.502;2022-10-14T03:20:47;100986.81;;;7.94;100.00
2268;BME280;11052;43.338;25.502;2022-10-14T03:23:15;100985.97;;;7.92;100.00
2268;BME280;11052;43.338;25.502;2022-10-14T03:25:43;100984.25;;;7.92;100.00
2268;BME280;11052;43.338;25.502;2022-10-14T03:28:10;100993.00;;;7.79;100.00
2268;BME280;11052;43.338;25.502;2022-10-14T03:30:37;100991.34;;;7.70;100.00
2268;BME280;11052;43.338;25.502;2022-10-14T03:33:05;100987.97;;;7.57;100.00
2268;BME280;11052;43.338;25.502;2022-10-14T03:35:32;100990.53;;;7.61;100.00
2268;BME280;11052;43.338;25.502;2022-10-14T03:38:01;100987.09;;;7.62;100.00
2268;BME280;11052;43.338;25.502;2022-10-14T03:40:28;100988.91;;;7.47;100.00
2268;BME280;11052;43.338;25.502;2022-10-14T03:42:57;100987.22;;;7.42;100.00
2268;BME280;11052;43.338;25.502;2022-10-14T03:45:25;100990.66;;;7.42;100.00
2268;BME280;11052;43.338;25.502;2022-10-14T03:47:53;100990.63;;;7.48;100.00
2268;BME280;11052;43.338;25.502;2022-10-14T03:50:20;100985.47;;;7.47;100.00
2268;BME280;11052;43.338;25.502;2022-10-14T03:52:47;100996.63;;;7.50;100.00
2268;BME280;11052;43.338;25.502;2022-10-14T03:55:16;100991.50;;;7.47;100.00
2268;BME280;11052;43.338;25.502;2022-10-14T03:57:44;100986.31;;;7.47;100.00
2268;BME280;11052;43.338;25.502;2022-10-14T04:00:12;100985.56;;;7.32;100.00
2268;BME280;11052;43.338;25.502;2022-10-14T04:02:39;100986.47;;;7.21;100.00
2268;BME280;11052;43.338;25.502;2022-10-14T04:05:07;100979.63;;;7.17;100.00
2268;BME280;11052;43.338;25.502;2022-10-14T04:07:35;100974.44;;;7.19;100.00
2268;BME280;11052;43.338;25.502;2022-10-14T04:10:02;100987.38;;;7.14;100.00
2268;BME280;11052;43.338;25.502;2022-10-14T04:12:31;100984.81;;;7.13;100.00
2268;BME280;11052;43.338;25.502;2022-10-14T04:14:58;100985.69;;;7.09;100.00
2268;BME280;11052;43.338;25.502;2022-10-14T04:17:25;100990.84;;;7.09;100.00
2268;BME280;11052;43.338;25.502;2022-10-14T04:19:52;100973.66;;;7.05;100.00
2268;BME280;11052;43.338;25.502;2022-10-14T04:22:20;100985.69;;;7.06;100.00
2268;BME280;11052;43.338;25.502;2022-10-14T04:24:47;100989.13;;;7.06;100.00
2268;BME280;11052;43.338;25.502;2022-10-14T04:27:15;100988.28;;;7.00;100.00
2268;BME280;11052;43.338;25.502;2022-10-14T04:29:43;100984.03;;;6.94;100.00
2268;BME280;11052;43.338;25.502;2022-10-14T04:32:11;100984.09;;;6.80;100.00
2268;BME280;11052;43.338;25.502;2022-10-14T04:34:38;100984.97;;;6.81;100.00
2268;BME280;11052;43.338;25.502;2022-10-14T04:37:05;100983.25;;;6.81;100.00
2268;BME280;11052;43.338;25.502;2022-10-14T04:39:32;100980.69;;;6.77;100.00
2268;BME280;11052;43.338;25.502;2022-10-14T04:42:00;100983.25;;;6.77;100.00
2268;BME280;11052;43.338;25.502;2022-10-14T04:44:27;100983.25;;;6.80;100.00
2268;BME280;11052;43.338;25.502;2022-10-14T04:46:56;100985.84;;;6.77;100.00
2268;BME280;11052;43.338;25.502;2022-10-14T04:49:23;100989.25;;;6.79;100.00
2268;BME280;11052;43.338;25.502;2022-10-14T04:51:50;100988.41;;;6.75;100.00
2268;BME280;11052;43.338;25.502;2022-10-14T04:54:17;100991.00;;;6.72;100.00
2268;BME280;11052;43.338;25.502;2022-10-14T04:56:44;100998.72;;;6.72;100.00
2268;BME280;11052;43.338;25.502;2022-10-14T04:59:12;100997.03;;;6.68;100.00
2268;BME280;11052;43.338;25.502;2022-10-14T05:01:39;100995.28;;;6.75;100.00
2268;BME280;11052;43.338;25.502;2022-10-14T05:04:08;100997.00;;;6.74;100.00
2268;BME280;11052;43.338;25.502;2022-10-14T05:06:35;101003.88;;;6.77;100.00
2268;BME280;11052;43.338;25.502;2022-10-14T05:09:03;101000.44;;;6.75;100.00
2268;BME280;11052;43.338;25.502;2022-10-14T05:11:30;101002.97;;;6.92;100.00
2268;BME280;11052;43.338;25.502;2022-10-14T05:13:57;100997.66;;;7.17;100.00
2268;BME280;11052;43.338;25.502;2022-10-14T05:16:25;100989.72;;;7.55;100.00
2268;BME280;11052;43.338;25.502;2022-10-14T05:18:52;101001.47;;;7.93;100.00
2268;BME280;11052;43.338;25.502;2022-10-14T05:21:21;101001.09;;;8.37;100.00
2268;BME280;11052;43.338;25.502;2022-10-14T05:23:48;100992.03;;;8.76;100.00
2268;BME280;11052;43.338;25.502;2022-10-14T05:26:15;100992.25;;;9.29;100.00
2268;BME280;11052;43.338;25.502;2022-10-14T05:28:42;100995.13;;;9.67;100.00
2268;BME280;11052;43.338;25.502;2022-10-14T05:31:10;100991.09;;;10.03;100.00
2268;BME280;11052;43.338;25.502;2022-10-14T05:33:37;100995.84;;;10.31;100.00
2268;BME280;11052;43.338;25.502;2022-10-14T05:36:05;100992.47;;;10.70;100.00
2268;BME280;11052;43.338;25.502;2022-10-14T05:38:34;100986.50;;;11.10;100.00
2268;BME280;11052;43.338;25.502;2022-10-14T05:41:01;100992.91;;;11.32;100.00
2268;BME280;11052;43.338;25.502;2022-10-14T05:43:28;100991.03;;;11.39;100.00
2268;BME280;11052;43.338;25.502;2022-10-14T05:45:55;100996.53;;;11.64;100.00
2268;BME280;11052;43.338;25.502;2022-10-14T05:48:23;101004.81;;;11.81;100.00
2268;BME280;11052;43.338;25.502;2022-10-14T05:50:50;100993.84;;;12.04;100.00
2268;BME280;11052;43.338;25.502;2022-10-14T05:53:17;100992.00;;;12.09;100.00
2268;BME280;11052;43.338;25.502;2022-10-14T05:55:46;100993.31;;;12.24;100.00
2268;BME280;11052;43.338;25.502;2022-10-14T05:58:13;100986.34;;;12.58;100.00
2268;BME280;11052;43.338;25.502;2022-10-14T06:00:40;100989.41;;;13.02;100.00
2268;BME280;11052;43.338;25.502;2022-10-14T06:03:09;100988.53;;;13.32;100.00
2268;BME280;11052;43.338;25.502;2022-10-14T06:05:37;100982.53;;;13.58;100.00
2268;BME280;11052;43.338;25.502;2022-10-14T06:08:04;100996.13;;;13.94;100.00
2268;BME280;11052;43.338;25.502;2022-10-14T06:10:33;100990.16;;;14.17;100.00
2268;BME280;11052;43.338;25.502;2022-10-14T06:13:02;100989.53;;;14.35;100.00
2268;BME280;11052;43.338;25.502;2022-10-14T06:15:29;100990.53;;;14.31;100.00
2268;BME280;11052;43.338;25.502;2022-10-14T06:17:56;100995.00;;;14.28;100.00
2268;BME280;11052;43.338;25.502;2022-10-14T06:20:23;100990.72;;;14.75;100.00
2268;BME280;11052;43.338;25.502;2022-10-14T06:22:51;100987.56;;;14.90;100.00
2268;BME280;11052;43.338;25.502;2022-10-14T06:25:18;100985.13;;;15.09;100.00
2268;BME280;11052;43.338;25.502;2022-10-14T06:27:45;100981.63;;;15.32;100.00
2268;BME280;11052;43.338;25.502;2022-10-14T06:30:14;100980.31;;;15.44;100.00
2268;BME280;11052;43.338;25.502;2022-10-14T06:32:41;100979.88;;;15.54;100.00
2268;BME280;11052;43.338;25.502;2022-10-14T06:35:09;100987.88;;;15.93;100.00
2268;BME280;11052;43.338;25.502;2022-10-14T06:37:36;100983.94;;;16.25;100.00
2268;BME280;11052;43.338;25.502;2022-10-14T06:40:04;100977.97;;;16.42;100.00
2268;BME280;11052;43.338;25.502;2022-10-14T06:42:32;100981.56;;;16.19;100.00
2268;BME280;11052;43.338;25.502;2022-10-14T06:45:00;100980.38;;;16.06;100.00
2268;BME280;11052;43.338;25.502;2022-10-14T06:47:28;100972.38;;;15.89;100.00
2268;BME280;11052;43.338;25.502;2022-10-14T06:49:56;100978.69;;;16.05;100.00
2268;BME280;11052;43.338;25.502;2022-10-14T06:52:23;100982.69;;;16.14;100.00
2268;BME280;11052;43.338;25.502;2022-10-14T06:54:50;100972.75;;;16.42;100.00
2268;BME280;11052;43.338;25.502;2022-10-14T06:57:17;100978.84;;;16.43;100.00
2268;BME280;11052;43.338;25.502;2022-10-14T06:59:45;100978.59;;;16.47;100.00
2268;BME280;11052;43.338;25.502;2022-10-14T07:02:12;100978.69;;;16.46;100.00
2268;BME280;11052;43.338;25.502;2022-10-14T07:04:40;100979.53;;;16.66;100.00
2268;BME280;11052;43.338;25.502;2022-10-14T07:07:08;100974.94;;;16.71;100.00
2268;BME280;11052;43.338;25.502;2022-10-14T07:09:35;100971.63;;;16.87;100.00
2268;BME280;11052;43.338;25.502;2022-10-14T07:12:03;100964.91;;;16.81;100.00
2268;BME280;11052;43.338;25.502;2022-10-14T07:14:30;100972.03;;;16.78;100.00
2268;BME280;11052;43.338;25.502;2022-10-14T07:16:57;100970.06;;;16.83;100.00
2268;BME280;11052;43.338;25.502;2022-10-14T07:19:25;100968.09;;;16.88;100.00
2268;BME280;11052;43.338;25.502;2022-10-14T07:21:54;100958.56;;;17.06;100.00
2268;BME280;11052;43.338;25.502;2022-10-14T07:24:21;100959.88;;;17.33;100.00
2268;BME280;11052;43.338;25.502;2022-10-14T07:26:49;100965.06;;;17.52;100.00
2268;BME280;11052;43.338;25.502;2022-10-14T07:29:16;100964.28;;;17.68;100.00
2268;BME280;11052;43.338;25.502;2022-10-14T07:31:43;100960.06;;;17.83;100.00
2268;BME280;11052;43.338;25.502;2022-10-14T07:34:10;100961.16;;;17.96;100.00
2268;BME280;11052;43.338;25.502;2022-10-14T07:36:38;100960.53;;;18.09;100.00
2268;BME280;11052;43.338;25.502;2022-10-14T07:39:06;100957.59;;;18.15;100.00
2268;BME280;11052;43.338;25.502;2022-10-14T07:41:33;100964.97;;;18.41;100.00
2268;BME280;11052;43.338;25.502;2022-10-14T07:44:02;100964.63;;;18.47;100.00
2268;BME280;11052;43.338;25.502;2022-10-14T07:46:36;100956.88;;;18.79;100.00
2268;BME280;11052;43.338;25.502;2022-10-14T07:49:06;100955.25;;;18.76;100.00
2268;BME280;11052;43.338;25.502;2022-10-14T07:51:34;100958.19;;;19.03;100.00
2268;BME280;11052;43.338;25.502;2022-10-14T07:54:04;100953.50;;;19.08;100.00
2268;BME280;11052;43.338;25.502;2022-10-14T07:56:36;100948.69;;;19.01;100.00
2268;BME280;11052;43.338;25.502;2022-10-14T07:59:03;100950.94;;;19.07;100.00
2268;BME280;11052;43.338;25.502;2022-10-14T08:01:31;100949.50;;;19.17;100.00
2268;BME280;11052;43.338;25.502;2022-10-14T08:03:58;100948.66;;;19.32;100.00
2268;BME280;11052;43.338;25.502;2022-10-14T08:06:25;100931.38;;;19.28;100.00
2268;BME280;11052;43.338;25.502;2022-10-14T08:08:53;100938.47;;;19.42;100.00
2268;BME280;11052;43.338;25.502;2022-10-14T08:11:22;100941.53;;;19.50;100.00
2268;BME280;11052;43.338;25.502;2022-10-14T08:13:51;100939.84;;;19.33;100.00
2268;BME280;11052;43.338;25.502;2022-10-14T08:16:20;100930.19;;;19.18;100.00
2268;BME280;11052;43.338;25.502;2022-10-14T08:18:49;100936.44;;;19.31;100.00
2268;BME280;11052;43.338;25.502;2022-10-14T08:21:17;100921.94;;;19.40;100.00
2268;BME280;11052;43.338;25.502;2022-10-14T08:23:45;100932.19;;;19.44;100.00
2268;BME280;11052;43.338;25.502;2022-10-14T08:26:20;100931.34;;;19.44;100.00
2268;BME280;11052;43.338;25.502;2022-10-14T08:28:49;100934.84;;;19.60;100.00
2268;BME280;11052;43.338;25.502;2022-10-14T08:31:19;100914.56;;;19.46;100.00
2268;BME280;11052;43.338;25.502;2022-10-14T08:33:46;100927.88;;;19.59;100.00
2268;BME280;11052;43.338;25.502;2022-10-14T08:36:16;100934.31;;;19.69;100.00
2268;BME280;11052;43.338;25.502;2022-10-14T08:38:44;100923.91;;;19.82;100.00
2268;BME280;11052;43.338;25.502;2022-10-14T08:41:42;100924.63;;;19.70;100.00
2268;BME280;11052;43.338;25.502;2022-10-14T08:44:15;100926.28;;;20.01;100.00
2268;BME280;11052;43.338;25.502;2022-10-14T08:46:49;100925.34;;;19.87;100.00
2268;BME280;11052;43.338;25.502;2022-10-14T08:49:22;100919.19;;;20.17;100.00
2268;BME280;11052;43.338;25.502;2022-10-14T08:51:55;100923.44;;;20.34;100.00
2268;BME280;11052;43.338;25.502;2022-10-14T08:54:29;100920.19;;;20.44;86.86
2268;BME280;11052;43.338;25.502;2022-10-14T08:56:59;100930.28;;;20.36;89.15
2268;BME280;11052;43.338;25.502;2022-10-14T08:59:26;100924.22;;;20.06;93.83
2268;BME280;11052;43.338;25.502;2022-10-14T09:01:59;100930.06;;;20.11;85.74
2268;BME280;11052;43.338;25.502;2022-10-14T09:04:30;100920.78;;;20.19;88.80
2268;BME280;11052;43.338;25.502;2022-10-14T09:07:01;100916.47;;;20.33;88.00
2268;BME280;11052;43.338;25.502;2022-10-14T09:09:35;100915.84;;;20.57;84.76
2268;BME280;11052;43.338;25.502;2022-10-14T09:12:06;100926.47;;;20.42;81.90
2268;BME280;11052;43.338;25.502;2022-10-14T09:14:40;100914.28;;;20.11;84.30
2268;BME280;11052;43.338;25.502;2022-10-14T09:17:15;100917.31;;;20.19;84.48
2268;BME280;11052;43.338;25.502;2022-10-14T09:19:46;100912.59;;;20.24;82.55
2268;BME280;11052;43.338;25.502;2022-10-14T09:22:15;100917.50;;;20.30;81.99
2268;BME280;11052;43.338;25.502;2022-10-14T09:24:42;100923.72;;;20.29;74.59
2268;BME280;11052;43.338;25.502;2022-10-14T09:27:14;100916.00;;;20.26;76.40
2268;BME280;11052;43.338;25.502;2022-10-14T09:29:45;100914.91;;;20.44;75.51
2268;BME280;11052;43.338;25.502;2022-10-14T09:32:22;100917.50;;;20.30;77.25
2268;BME280;11052;43.338;25.502;2022-10-14T09:34:52;100917.31;;;20.33;79.56
2268;BME280;11052;43.338;25.502;2022-10-14T09:37:25;100919.34;;;20.44;77.19
2268;BME280;11052;43.338;25.502;2022-10-14T09:39:55;100903.50;;;20.72;74.69
2268;BME280;11052;43.338;25.502;2022-10-14T09:42:29;100906.72;;;20.63;75.69
2268;BME280;11052;43.338;25.502;2022-10-14T09:45:08;100908.78;;;20.44;78.28
2268;BME280;11052;43.338;25.502;2022-10-14T09:47:45;100902.53;;;20.87;73.81
2268;BME280;11052;43.338;25.502;2022-10-14T09:50:21;100905.88;;;21.04;70.68
2268;BME280;11052;43.338;25.502;2022-10-14T09:52:51;100917.34;;;21.17;68.69
2268;BME280;11052;43.338;25.502;2022-10-14T09:55:21;100911.31;;;21.15;66.38
2268;BME280;11052;43.338;25.502;2022-10-14T09:58:03;100920.50;;;20.95;68.49
2268;BME280;11052;43.338;25.502;2022-10-14T10:00:31;100909.44;;;20.76;71.37
2268;BME280;11052;43.338;25.502;2022-10-14T10:03:02;100919.94;;;20.90;70.88
2268;BME280;11052;43.338;25.502;2022-10-14T10:05:30;100911.53;;;20.56;73.50
2268;BME280;11052;43.338;25.502;2022-10-14T10:08:06;100908.56;;;20.33;74.15
2268;BME280;11052;43.338;25.502;2022-10-14T10:10:38;100900.56;;;20.34;75.71
2268;BME280;11052;43.338;25.502;2022-10-14T10:13:19;100893.81;;;20.73;75.14
2268;BME280;11052;43.338;25.502;2022-10-14T10:15:56;100892.41;;;21.08;69.97
2268;BME280;11052;43.338;25.502;2022-10-14T10:18:25;100897.84;;;21.19;66.51
2268;BME280;11052;43.338;25.502;2022-10-14T10:21:01;100898.13;;;21.29;64.33
2268;BME280;11052;43.338;25.502;2022-10-14T10:23:32;100888.38;;;21.03;66.95
2268;BME280;11052;43.338;25.502;2022-10-14T10:26:14;100888.22;;;21.18;67.22
2268;BME280;11052;43.338;25.502;2022-10-14T10:28:45;100884.59;;;21.07;68.39
2268;BME280;11052;43.338;25.502;2022-10-14T10:31:32;100880.91;;;21.23;68.33
2268;BME280;11052;43.338;25.502;2022-10-14T10:34:11;100872.84;;;21.39;64.88
2268;BME280;11052;43.338;25.502;2022-10-14T10:36:45;100867.81;;;21.62;64.63
2268;BME280;11052;43.338;25.502;2022-10-14T10:39:22;100866.34;;;21.83;63.83
2268;BME280;11052;43.338;25.502;2022-10-14T10:42:00;100863.06;;;21.67;60.47
2268;BME280;11052;43.338;25.502;2022-10-14T10:47:39;100851.34;;;21.71;60.75
2268;BME280;11052;43.338;25.502;2022-10-14T10:50:24;100845.66;;;21.89;60.50
2268;BME280;11052;43.338;25.502;2022-10-14T10:53:10;100850.03;;;22.16;61.80
2268;BME280;11052;43.338;25.502;2022-10-14T10:55:49;100844.72;;;22.41;59.12
2268;BME280;11052;43.338;25.502;2022-10-14T10:58:27;100841.56;;;22.36;57.25
2268;BME280;11052;43.338;25.502;2022-10-14T11:01:15;100842.28;;;22.38;55.25
2268;BME280;11052;43.338;25.502;2022-10-14T11:07:43;100827.31;;;22.63;55.11
2268;BME280;11052;43.338;25.502;2022-10-14T11:11:15;100819.81;;;22.56;52.39
2268;BME280;11052;43.338;25.502;2022-10-14T11:14:18;100824.31;;;22.43;55.26
2268;BME280;11052;43.338;25.502;2022-10-14T11:17:25;100812.00;;;22.55;56.42
2268;BME280;11052;43.338;25.502;2022-10-14T11:19:59;100812.06;;;22.42;55.94
2268;BME280;11052;43.338;25.502;2022-10-14T11:22:47;100812.31;;;22.14;56.57
2268;BME280;11052;43.338;25.502;2022-10-14T11:25:33;100806.91;;;21.90;57.15
2268;BME280;11052;43.338;25.502;2022-10-14T11:28:12;100802.34;;;21.41;58.24
2268;BME280;11052;43.338;25.502;2022-10-14T11:31:30;100796.13;;;21.15;60.07
2268;BME280;11052;43.338;25.502;2022-10-14T11:37:28;100796.44;;;20.84;61.78
2268;BME280;11052;43.338;25.502;2022-10-14T11:40:18;100786.56;;;20.87;61.72
2268;BME280;11052;43.338;25.502;2022-10-14T11:43:06;100782.13;;;20.88;62.01
2268;BME280;11052;43.338;25.502;2022-10-14T11:46:12;100781.63;;;20.95;61.71
2268;BME280;11052;43.338;25.502;2022-10-14T11:49:00;100772.19;;;21.18;60.56
2268;BME280;11052;43.338;25.502;2022-10-14T11:51:40;100774.94;;;21.17;58.63
2268;BME280;11052;43.338;25.502;2022-10-14T11:54:25;100776.84;;;21.15;57.87
2268;BME280;11052;43.338;25.502;2022-10-14T11:57:05;100766.19;;;21.16;58.41
2268;BME280;11052;43.338;25.502;2022-10-14T11:59:49;100765.97;;;21.19;58.56
2268;BME280;11052;43.338;25.502;2022-10-14T12:02:51;100762.22;;;21.23;59.33
2268;BME280;11052;43.338;25.502;2022-10-14T12:06:14;100762.88;;;21.40;53.85
2268;BME280;11052;43.338;25.502;2022-10-14T12:09:43;100751.28;;;21.42;52.43
2268;BME280;11052;43.338;25.502;2022-10-14T12:12:36;100754.25;;;21.50;53.13
2268;BME280;11052;43.338;25.502;2022-10-14T12:15:20;100759.50;;;21.38;52.00
2268;BME280;11052;43.338;25.502;2022-10-14T12:22:03;100750.44;;;21.29;53.37
2268;BME280;11052;43.338;25.502;2022-10-14T12:25:21;100744.13;;;21.44;52.63
2268;BME280;11052;43.338;25.502;2022-10-14T12:28:56;100745.16;;;21.67;51.64
2268;BME280;11052;43.338;25.502;2022-10-14T12:32:20;100756.91;;;21.63;59.87
2268;BME280;11052;43.338;25.502;2022-10-14T12:39:28;100745.16;;;21.02;66.11
2268;BME280;11052;43.338;25.502;2022-10-14T12:42:09;100733.19;;;20.84;68.45
2268;BME280;11052;43.338;25.502;2022-10-14T12:52:00;100742.97;;;20.42;75.46
2268;BME280;11052;43.338;25.502;2022-10-14T12:54:45;100745.50;;;20.44;78.51
2268;BME280;11052;43.338;25.502;2022-10-14T12:57:25;100756.31;;;20.39;76.10
2268;BME280;11052;43.338;25.502;2022-10-14T12:59:57;100741.81;;;20.32;78.54
2268;BME280;11052;43.338;25.502;2022-10-14T13:02:29;100743.06;;;20.41;80.48
2268;BME280;11052;43.338;25.502;2022-10-14T13:05:02;100739.38;;;20.43;79.68
2268;BME280;11052;43.338;25.502;2022-10-14T13:07:41;100736.66;;;20.45;79.01
2268;BME280;11052;43.338;25.502;2022-10-14T13:10:41;100723.19;;;20.49;75.60
2268;BME280;11052;43.338;25.502;2022-10-14T13:19:44;100743.81;;;20.28;76.27
2268;BME280;11052;43.338;25.502;2022-10-14T13:22:34;100745.06;;;20.09;78.83
2268;BME280;11052;43.338;25.502;2022-10-14T13:25:11;100739.81;;;19.94;79.56
2268;BME280;11052;43.338;25.502;2022-10-14T13:30:33;100756.84;;;19.89;78.02
2268;BME280;11052;43.338;25.502;2022-10-14T13:33:13;100752.16;;;19.80;80.21
2268;BME280;11052;43.338;25.502;2022-10-14T13:35:49;100744.91;;;19.83;80.92
2268;BME280;11052;43.338;25.502;2022-10-14T13:38:20;100752.72;;;19.85;80.17
2268;BME280;11052;43.338;25.502;2022-10-14T13:40:51;100766.97;;;19.95;77.37
2268;BME280;11052;43.338;25.502;2022-10-14T13:43:22;100763.81;;;19.90;75.94
2268;BME280;11052;43.338;25.502;2022-10-14T13:45:55;100764.09;;;19.85;76.38
2268;BME280;11052;43.338;25.502;2022-10-14T13:48:28;100763.91;;;19.88;78.74
2268;BME280;11052;43.338;25.502;2022-10-14T13:51:15;100756.38;;;19.82;84.56
2268;BME280;11052;43.338;25.502;2022-10-14T13:53:51;100752.63;;;19.72;87.61
2268;BME280;11052;43.338;25.502;2022-10-14T13:56:23;100756.09;;;19.73;87.45